Sweet Home, Oregon
Current Conditions -  °F | °C
As of 7:35 PM on Saturday 24 Jan 2015 (Local Time) from KCVO Reporting Station
Overcast Overcast  
Wind Chill: 44°   Ceiling: 500
Heat Index: 46°   Visibility: 0.75mi
Dew Point: 45°   Wind: 5mph
Humidity: 93%   Direction: 280°W
Pressure: 30.26"   Gusts: NA
Location:  44.4°N, 122.73°W
Report Text: KCVO 250335Z AUTO 28004KT 3/4SM VV005 08/07 A3026 RMK AO1
Loading
Personal Weather Stations






























Interactive Weather Map New forecast layout! Learn more

10-Day Weather Forecast

Advertisements
Track Severe Weather on mobile